Time;durP1;ratioP1;P1;durP2;ratioP2;P2;SDS_P1;SDS_P2;PMS_P1;PMS_P2;Temp;Humidity;BMP_temperature;BMP_pressure;BME280_temperature;BME280_humidity;BME280_pressure;Samples;Min_cycle;Max_cycle;Signal;HPM_P1;HPM_P2
2023/03/07 00:00:46;;;;;;;18.57;10.43;;;;;;;-2.78;50.25;98096.22;1786408;79;20987;-71
2023/03/07 00:03:16;;;;;;;16.75;10.03;;;;;;;-2.82;50.30;98097.16;1780862;78;20995;-72
2023/03/07 00:05:44;;;;;;;14.23;8.83;;;;;;;-2.85;50.36;98097.23;1785977;79;20994;-72
2023/03/07 00:08:11;;;;;;;20.72;10.30;;;;;;;-2.86;50.46;98094.24;1780063;79;21050;-72
2023/03/07 00:10:38;;;;;;;15.20;8.98;;;;;;;-2.87;50.54;98095.96;1771109;79;21489;-71
2023/03/07 00:13:05;;;;;;;12.25;8.25;;;;;;;-2.85;50.59;98087.01;1781184;79;21096;-72
2023/03/07 00:15:31;;;;;;;21.75;8.75;;;;;;;-2.84;50.58;98091.23;1775323;78;21022;-72
2023/03/07 00:17:58;;;;;;;15.03;8.28;;;;;;;-2.87;50.64;98087.02;1756478;79;21406;-73
2023/03/07 00:20:25;;;;;;;14.30;7.72;;;;;;;-2.87;50.74;98086.19;1751262;80;21089;-73
2023/03/07 00:22:51;;;;;;;13.08;8.18;;;;;;;-2.88;50.83;98079.41;1773128;79;21088;-72
2023/03/07 00:25:18;;;;;;;14.23;8.13;;;;;;;-2.86;50.86;98080.20;1775713;79;21335;-71
2023/03/07 00:27:45;;;;;;;13.88;8.03;;;;;;;-2.84;50.96;98070.80;1761817;78;21061;-71
2023/03/07 00:30:12;;;;;;;15.00;7.87;;;;;;;-2.87;50.88;98074.25;1784557;79;21134;-72
2023/03/07 00:32:39;;;;;;;11.85;7.60;;;;;;;-2.86;51.07;98069.98;1783727;79;21013;-68
2023/03/07 00:35:07;;;;;;;17.48;7.35;;;;;;;-2.81;50.91;98070.73;1787778;79;21144;-61
2023/03/07 00:37:34;;;;;;;14.78;8.50;;;;;;;-2.86;51.08;98063.59;1787059;78;21025;-71
2023/03/07 00:40:00;;;;;;;12.58;7.28;;;;;;;-2.93;50.97;98058.61;1787872;78;21070;-65
2023/03/07 00:42:27;;;;;;;14.90;7.95;;;;;;;-2.96;51.22;98057.41;1786709;78;21564;-60
2023/03/07 00:44:53;;;;;;;12.10;7.80;;;;;;;-2.92;51.33;98059.45;1782055;78;21526;-62
2023/03/07 00:47:20;;;;;;;12.05;7.28;;;;;;;-2.90;51.21;98058.16;1786195;78;21510;-63
2023/03/07 00:49:47;;;;;;;13.23;7.87;;;;;;;-2.89;51.38;98050.89;1784966;79;20974;-71
2023/03/07 00:52:13;;;;;;;10.87;7.03;;;;;;;-2.90;51.38;98047.94;1785830;78;21069;-70
2023/03/07 00:54:40;;;;;;;14.85;7.37;;;;;;;-2.90;51.46;98047.94;1782429;78;21160;-72
2023/03/07 00:57:06;;;;;;;8.55;6.05;;;;;;;-2.90;51.47;98048.78;1793484;78;21112;-68
2023/03/07 00:59:33;;;;;;;12.70;7.85;;;;;;;-2.92;51.49;98041.58;1752726;80;21074;-70
2023/03/07 01:02:00;;;;;;;13.72;7.35;;;;;;;-2.98;51.68;98034.87;1749851;80;20934;-72
2023/03/07 01:04:26;;;;;;;12.93;8.80;;;;;;;-3.01;51.68;98030.27;1735052;81;21125;-72
2023/03/07 01:06:53;;;;;;;12.37;7.92;;;;;;;-3.03;51.74;98027.73;1735795;81;21055;-71
2023/03/07 01:09:20;;;;;;;11.87;7.40;;;;;;;-3.02;51.78;98026.89;1733149;80;21102;-72
2023/03/07 01:11:48;;;;;;;11.12;7.55;;;;;;;-3.04;51.86;98024.79;1736240;81;21029;-67
2023/03/07 01:14:15;;;;;;;12.20;7.97;;;;;;;-3.05;52.03;98021.84;1747501;80;20940;-65
2023/03/07 01:16:41;;;;;;;16.73;7.93;;;;;;;-3.03;52.07;98021.35;1751588;80;21061;-72
2023/03/07 01:19:11;;;;;;;12.15;7.55;;;;;;;-3.04;51.99;98013.30;1750399;80;21023;-70
2023/03/07 01:21:41;;;;;;;11.50;7.62;;;;;;;-3.05;52.16;98014.18;1701287;82;21037;-72
2023/03/07 01:24:16;;;;;;;12.13;8.00;;;;;;;-3.05;52.14;98009.48;1746675;80;21081;-72
2023/03/07 01:26:42;;;;;;;13.60;7.78;;;;;;;-3.02;52.32;98003.06;1721528;80;21070;-72
2023/03/07 01:29:11;;;;;;;12.58;7.70;;;;;;;-3.04;52.24;98000.53;1722125;82;21011;-62
2023/03/07 01:31:37;;;;;;;11.38;8.18;;;;;;;-3.05;52.37;97998.86;1735943;80;21050;-72
2023/03/07 01:34:04;;;;;;;10.47;7.77;;;;;;;-3.04;52.38;97992.88;1727978;81;20975;-70
2023/03/07 01:36:34;;;;;;;12.28;8.85;;;;;;;-3.08;52.48;97991.27;1713422;82;21058;-71
2023/03/07 01:39:15;;;;;;;10.38;7.45;;;;;;;-3.11;52.53;97992.58;1736002;80;21028;-67
2023/03/07 01:41:44;;;;;;;15.38;8.45;;;;;;;-3.12;52.58;97990.07;1773911;79;21069;-72
2023/03/07 01:44:24;;;;;;;11.78;8.25;;;;;;;-3.14;52.66;97988.81;1772331;79;21465;-72
2023/03/07 01:46:54;;;;;;;14.65;8.15;;;;;;;-3.13;52.70;97980.30;1733217;80;21025;-72
2023/03/07 01:49:37;;;;;;;11.50;8.53;;;;;;;-3.14;52.73;97986.26;1777411;79;20982;-72
2023/03/07 01:52:17;;;;;;;11.10;8.40;;;;;;;-3.15;52.77;97976.93;1772599;79;21580;-70
2023/03/07 01:54:49;;;;;;;13.25;8.13;;;;;;;-3.15;52.94;97976.93;1753158;79;21124;-71
2023/03/07 01:57:22;;;;;;;10.45;7.72;;;;;;;-3.15;52.98;97975.21;1777293;79;21030;-72
2023/03/07 01:59:54;;;;;;;13.00;7.95;;;;;;;-3.15;53.11;97977.77;1773129;79;21056;-70
2023/03/07 02:02:23;;;;;;;13.62;8.00;;;;;;;-3.17;53.12;97967.17;1774815;79;20981;-65
2023/03/07 02:05:24;;;;;;;10.95;8.33;;;;;;;-3.18;53.06;97966.34;1774335;79;20970;-72
2023/03/07 02:07:53;;;;;;;18.70;8.23;;;;;;;-3.20;53.23;97963.41;1770060;79;21135;-72
2023/03/07 02:10:25;;;;;;;13.22;8.93;;;;;;;-3.23;53.34;97955.82;1773421;79;21458;-69
2023/03/07 02:12:53;;;;;;;13.32;8.65;;;;;;;-3.21;53.27;97956.64;1773015;79;20999;-69
2023/03/07 02:15:20;;;;;;;12.63;7.83;;;;;;;-3.24;53.50;97954.16;1734630;81;20962;-72
2023/03/07 02:17:47;;;;;;;15.25;9.03;;;;;;;-3.21;53.61;97956.64;1733471;80;21117;-65
2023/03/07 02:20:41;;;;;;;10.53;7.80;;;;;;;-3.20;53.63;97958.31;1774920;79;21136;-64
2023/03/07 02:23:12;;;;;;;13.85;9.28;;;;;;;-3.19;53.65;97951.91;1774795;79;21520;-72
2023/03/07 02:25:56;;;;;;;10.95;7.92;;;;;;;-3.19;53.75;97952.34;1773085;79;21600;-71
2023/03/07 02:28:24;;;;;;;12.70;8.50;;;;;;;-3.20;53.81;97946.82;1781855;78;21060;-72
2023/03/07 02:31:02;;;;;;;11.88;7.78;;;;;;;-3.18;53.77;97950.19;1787901;78;21065;-66
2023/03/07 02:33:29;;;;;;;12.68;8.45;;;;;;;-3.18;53.90;97948.91;1778169;78;21031;-71
2023/03/07 02:36:01;;;;;;;16.50;8.40;;;;;;;-3.17;53.98;97944.20;1783826;78;20966;-72
2023/03/07 02:38:31;;;;;;;13.60;8.73;;;;;;;-3.18;53.96;97946.36;1783059;78;21767;-71
2023/03/07 02:40:58;;;;;;;15.10;9.13;;;;;;;-3.19;54.08;97942.14;1748367;79;21071;-73
2023/03/07 02:43:25;;;;;;;17.30;9.90;;;;;;;-3.19;54.12;97940.86;1730573;81;21051;-60
2023/03/07 02:45:51;;;;;;;14.45;8.53;;;;;;;-3.22;54.17;97929.41;1721942;81;21043;-67
2023/03/07 02:48:18;;;;;;;13.78;8.53;;;;;;;-3.22;54.16;97929.41;1746528;80;21072;-67
2023/03/07 02:50:50;;;;;;;12.05;8.58;;;;;;;-3.24;54.19;97919.69;1724950;80;21122;-73
2023/03/07 02:53:15;;;;;;;13.72;8.48;;;;;;;-3.24;54.27;97918.41;1750957;80;21055;-71
2023/03/07 02:55:42;;;;;;;11.03;8.23;;;;;;;-3.25;54.20;97919.27;1706237;82;21050;-72
2023/03/07 02:58:09;;;;;;;15.15;9.40;;;;;;;-3.32;54.17;97910.91;1750402;79;21000;-72
2023/03/07 03:00:36;;;;;;;17.43;9.47;;;;;;;-3.37;54.35;97918.64;1752680;80;20908;-65
2023/03/07 03:03:03;;;;;;;11.70;9.03;;;;;;;-3.37;54.13;97921.20;1754732;80;21126;-73
2023/03/07 03:05:30;;;;;;;12.88;8.25;;;;;;;-3.39;54.08;97908.93;1751713;80;21007;-72
2023/03/07 03:07:57;;;;;;;12.50;8.43;;;;;;;-3.46;54.22;97894.60;1755073;80;21014;-67
2023/03/07 03:10:23;;;;;;;11.83;8.63;;;;;;;-3.42;54.23;97903.89;1751129;80;20997;-73
2023/03/07 03:12:50;;;;;;;11.47;8.50;;;;;;;-3.44;54.33;97906.90;1745508;80;21556;-73
2023/03/07 03:15:17;;;;;;;13.70;8.43;;;;;;;-3.45;54.35;97909.47;1749156;80;21047;-68
2023/03/07 03:17:44;;;;;;;14.33;9.05;;;;;;;-3.45;54.50;97901.38;1733375;81;21592;-67
2023/03/07 03:20:12;;;;;;;15.23;9.38;;;;;;;-3.46;54.53;97893.33;1727257;81;21055;-59
2023/03/07 03:22:41;;;;;;;14.55;8.43;;;;;;;-3.52;54.35;97898.56;1730575;81;20969;-70
2023/03/07 03:25:12;;;;;;;14.58;8.73;;;;;;;-3.61;54.44;97898.75;1727021;81;21038;-69
2023/03/07 03:27:39;;;;;;;15.68;8.80;;;;;;;-3.68;54.56;97894.62;1725845;81;21098;-70
2023/03/07 03:30:09;;;;;;;16.80;8.83;;;;;;;-3.74;54.66;97887.93;1730937;81;21061;-72
2023/03/07 03:32:38;;;;;;;14.68;8.58;;;;;;;-3.82;54.63;97886.80;1735634;81;21026;-60
2023/03/07 03:35:07;;;;;;;15.60;8.78;;;;;;;-3.85;54.73;97887.30;1733908;81;21155;-58
2023/03/07 03:37:34;;;;;;;18.17;9.78;;;;;;;-3.87;54.79;97880.94;1734383;81;21008;-62
2023/03/07 03:40:01;;;;;;;12.82;8.83;;;;;;;-3.87;54.88;97879.66;1731940;81;20960;-60
2023/03/07 03:42:28;;;;;;;14.80;9.68;;;;;;;-3.83;55.24;97876.20;1744224;80;20920;-58
2023/03/07 03:44:54;;;;;;;13.83;10.25;;;;;;;-3.78;55.56;97865.05;1718148;82;21389;-61
2023/03/07 03:47:22;;;;;;;14.50;9.03;;;;;;;-3.75;55.50;97862.44;1705934;82;21101;-66
2023/03/07 03:49:49;;;;;;;12.25;9.58;;;;;;;-3.73;55.40;97865.81;1707395;82;21158;-66
2023/03/07 03:52:16;;;;;;;15.50;9.67;;;;;;;-3.73;55.82;97861.98;1732321;81;21105;-70
2023/03/07 03:54:42;;;;;;;15.00;10.53;;;;;;;-3.68;55.93;97858.91;1731258;81;21136;-72
2023/03/07 03:57:11;;;;;;;14.33;9.87;;;;;;;-3.61;55.93;97860.48;1733834;81;21070;-71
2023/03/07 03:59:37;;;;;;;16.25;10.25;;;;;;;-3.54;55.89;97849.27;1735386;81;21549;-70
2023/03/07 04:02:04;;;;;;;13.10;9.30;;;;;;;-3.55;55.95;97856.97;1712941;82;21503;-72
2023/03/07 04:04:30;;;;;;;13.17;8.70;;;;;;;-3.54;56.11;97849.27;1708845;82;21038;-72
2023/03/07 04:06:57;;;;;;;16.15;9.75;;;;;;;-3.52;56.21;97852.63;1703448;82;20955;-70
2023/03/07 04:09:28;;;;;;;14.40;9.67;;;;;;;-3.47;56.15;97848.28;1710219;82;21079;-71
2023/03/07 04:11:55;;;;;;;17.60;10.60;;;;;;;-3.45;56.46;97843.13;1707833;82;21557;-72
2023/03/07 04:14:22;;;;;;;14.10;9.70;;;;;;;-3.43;56.19;97836.28;1710781;82;21145;-71
2023/03/07 04:16:49;;;;;;;15.15;9.28;;;;;;;-3.43;56.49;97828.19;1705083;82;21509;-70
2023/03/07 04:19:16;;;;;;;15.80;8.78;;;;;;;-3.38;56.79;97822.56;1706187;82;21072;-66
2023/03/07 04:21:43;;;;;;;14.80;10.08;;;;;;;-3.37;56.62;97821.67;1697469;83;21050;-73
2023/03/07 04:24:10;;;;;;;20.43;9.60;;;;;;;-3.35;56.64;97820.82;1704526;82;21007;-65
2023/03/07 04:26:37;;;;;;;16.70;10.58;;;;;;;-3.34;56.69;97818.22;1708421;82;21068;-71
2023/03/07 04:29:04;;;;;;;15.70;9.60;;;;;;;-3.30;56.88;97819.02;1712331;82;21112;-72
2023/03/07 04:31:31;;;;;;;13.10;8.85;;;;;;;-3.29;57.00;97815.58;1711025;82;21503;-66
2023/03/07 04:33:57;;;;;;;13.62;10.20;;;;;;;-3.26;57.10;97807.84;1712376;81;21577;-72
2023/03/07 04:36:24;;;;;;;11.88;8.53;;;;;;;-3.26;57.00;97809.12;1714862;82;22632;-67
2023/03/07 04:38:51;;;;;;;13.22;9.43;;;;;;;-3.24;57.11;97804.83;1723238;82;21007;-72
2023/03/07 04:41:21;;;;;;;14.33;8.68;;;;;;;-3.23;57.15;97802.67;1720030;81;21119;-71
2023/03/07 04:43:48;;;;;;;14.00;9.25;;;;;;;-3.24;57.29;97801.00;1721211;82;21086;-72
2023/03/07 04:46:17;;;;;;;16.42;9.65;;;;;;;-3.20;57.41;97797.49;1715376;82;21103;-72
2023/03/07 04:48:45;;;;;;;17.87;9.33;;;;;;;-3.20;57.36;97797.49;1716805;82;21471;-69
2023/03/07 04:51:13;;;;;;;12.80;8.50;;;;;;;-3.21;57.30;97790.72;1724711;82;20937;-72
2023/03/07 04:53:39;;;;;;;16.62;9.85;;;;;;;-3.20;57.43;97787.28;1721577;81;20949;-71
2023/03/07 04:56:08;;;;;;;12.30;8.33;;;;;;;-3.20;57.62;97779.62;1712972;82;21626;-68
2023/03/07 04:58:36;;;;;;;18.05;9.35;;;;;;;-3.19;57.58;97787.70;1713907;82;21088;-72
2023/03/07 05:01:04;;;;;;;16.27;8.73;;;;;;;-3.19;57.83;97773.66;1685529;82;21026;-72
2023/03/07 05:03:31;;;;;;;11.45;8.13;;;;;;;-3.19;57.87;97774.50;1654817;84;20983;-72
2023/03/07 05:06:05;;;;;;;14.43;8.68;;;;;;;-3.19;57.91;97773.66;1652598;85;21142;-70
2023/03/07 05:08:33;;;;;;;17.32;8.70;;;;;;;-3.18;58.15;97761.29;1679285;83;21456;-70
2023/03/07 05:11:01;;;;;;;14.95;8.30;;;;;;;-3.20;57.91;97756.65;1677449;83;21039;-60
2023/03/07 05:13:27;;;;;;;12.45;7.00;;;;;;;-3.26;58.00;97749.98;1655417;85;21015;-72
2023/03/07 05:15:57;;;;;;;13.60;8.00;;;;;;;-3.31;57.89;97745.85;1675367;83;21008;-67
2023/03/07 05:18:25;;;;;;;14.40;7.58;;;;;;;-3.37;58.14;97741.73;1685130;83;21015;-72
2023/03/07 05:20:53;;;;;;;12.63;7.55;;;;;;;-3.39;58.14;97739.23;1678621;83;20987;-70
2023/03/07 05:23:23;;;;;;;12.60;7.75;;;;;;;-3.37;58.31;97740.02;1655683;85;21093;-76
2023/03/07 05:25:50;;;;;;;10.08;7.22;;;;;;;-3.37;58.22;97737.46;1659841;84;21000;-72
2023/03/07 05:28:17;;;;;;;12.10;7.58;;;;;;;-3.33;58.45;97735.70;1684331;82;21098;-75
2023/03/07 05:30:47;;;;;;;13.93;7.87;;;;;;;-3.31;58.42;97735.64;1707309;82;21004;-73
2023/03/07 05:33:14;;;;;;;13.80;7.58;;;;;;;-3.31;58.56;97733.92;1767065;79;21109;-76
2023/03/07 05:35:42;;;;;;;12.45;8.13;;;;;;;-3.27;58.72;97724.51;1734149;80;20943;-73
2023/03/07 05:38:09;;;;;;;10.72;7.12;;;;;;;-3.22;58.60;97722.66;1753403;79;20931;-72
2023/03/07 05:40:36;;;;;;;;;;;;;;;-3.20;58.68;97717.92;1749153;80;21041;-74
2023/03/07 05:43:03;;;;;;;13.40;7.97;;;;;;;-3.19;58.82;97717.51;1752838;79;20130;-70
2023/03/07 05:45:30;;;;;;;;;;;;;;;-3.15;58.96;97716.55;1756406;80;20950;-67
2023/03/07 05:47:57;;;;;;;12.03;8.03;;;;;;;-3.12;59.29;97711.36;1753276;80;20114;-73
2023/03/07 05:50:25;;;;;;;25.95;17.75;;;;;;;-3.09;59.37;97703.62;1753951;80;20985;-70
2023/03/07 05:52:53;;;;;;;38.73;28.27;;;;;;;-3.07;59.17;97701.05;1744802;80;21455;-71
2023/03/07 05:55:20;;;;;;;22.95;20.48;;;;;;;-3.05;59.28;97697.58;1752372;80;21084;-68
2023/03/07 05:57:46;;;;;;;24.30;18.32;;;;;;;-2.97;59.43;97696.95;1749828;80;21010;-60
2023/03/07 06:00:14;;;;;;;27.90;19.27;;;;;;;-2.92;59.47;97691.27;1745135;80;21014;-67
2023/03/07 06:02:41;;;;;;;11.90;6.45;;;;;;;-2.84;59.59;97687.69;1746788;80;21516;-65
2023/03/07 06:05:09;;;;;;;13.70;7.35;;;;;;;-2.72;59.74;97692.45;1754898;80;21686;-74
2023/03/07 06:07:36;;;;;;;;;;;;;;;-2.61;59.76;97687.91;1750856;79;21084;-70
2023/03/07 06:10:04;;;;;;;15.03;8.43;;;;;;;-2.51;59.88;97689.34;1752043;80;20102;-72
2023/03/07 06:12:31;;;;;;;13.65;9.25;;;;;;;-2.42;59.77;97687.41;1756330;80;21111;-71
2023/03/07 06:14:58;;;;;;;11.73;6.20;;;;;;;-2.38;59.84;97676.20;1753252;80;20956;-69
2023/03/07 06:17:24;;;;;;;11.28;7.22;;;;;;;-2.32;59.97;97673.50;1749534;80;20978;-67
2023/03/07 06:19:51;;;;;;;16.20;7.10;;;;;;;-2.24;60.05;97670.30;1748838;80;21145;-74
2023/03/07 06:22:18;;;;;;;16.87;8.78;;;;;;;-2.25;60.23;97682.66;1742937;80;21065;-68
2023/03/07 06:24:44;;;;;;;15.93;10.50;;;;;;;-2.16;60.23;97672.16;1754982;79;21044;-75
2023/03/07 06:27:11;;;;;;;25.40;19.52;;;;;;;-2.08;60.33;97672.78;1754269;79;21009;-74
2023/03/07 06:29:38;;;;;;;20.10;17.30;;;;;;;-2.05;60.38;97654.78;1761141;79;21077;-70
2023/03/07 06:32:05;;;;;;;27.20;22.63;;;;;;;-1.99;60.45;97656.32;1782446;78;22490;-74
2023/03/07 06:34:32;;;;;;;27.17;24.32;;;;;;;-1.95;60.66;97649.41;1778757;78;21964;-68
2023/03/07 06:37:00;;;;;;;22.73;15.55;;;;;;;-1.91;60.63;97644.14;1778530;78;21002;-68
2023/03/07 06:39:27;;;;;;;12.33;7.95;;;;;;;-1.78;60.71;97633.55;1779036;78;21073;-61
2023/03/07 06:41:54;;;;;;;17.65;9.15;;;;;;;-1.60;60.90;97632.53;1778601;78;20986;-68
2023/03/07 06:44:23;;;;;;;18.20;10.90;;;;;;;-1.39;61.00;97630.16;1786037;79;21042;-75
2023/03/07 06:46:49;;;;;;;19.23;11.33;;;;;;;-1.24;60.97;97632.20;1779518;78;21516;-72
2023/03/07 06:49:15;;;;;;;17.60;11.57;;;;;;;-1.09;61.12;97627.03;1786092;78;21077;-74
2023/03/07 06:51:42;;;;;;;15.10;10.37;;;;;;;-0.81;61.30;97612.83;1780194;77;21564;-73
2023/03/07 06:54:08;;;;;;;22.70;11.10;;;;;;;-0.59;61.21;97605.63;1784793;78;21109;-75
2023/03/07 06:56:35;;;;;;;17.42;11.40;;;;;;;-0.54;61.21;97606.30;1784850;78;20969;-74
2023/03/07 06:59:05;;;;;;;24.82;12.60;;;;;;;-0.55;61.21;97594.39;1758873;79;21447;-67
2023/03/07 07:01:34;;;;;;;32.00;27.17;;;;;;;-0.53;61.29;97591.34;1785448;78;21073;-70
2023/03/07 07:04:00;;;;;;;12.23;7.97;;;;;;;-0.47;61.18;97585.98;1784534;77;21532;-72
2023/03/07 07:06:27;;;;;;;11.37;7.30;;;;;;;-0.48;61.13;97590.69;1779046;78;21603;-68
2023/03/07 07:08:55;;;;;;;9.55;6.92;;;;;;;-0.53;61.16;97583.19;1777160;79;21066;-74
2023/03/07 07:11:23;;;;;;;11.80;7.62;;;;;;;-0.52;61.21;97572.03;1787024;78;21544;-73
2023/03/07 07:13:50;;;;;;;11.28;9.15;;;;;;;-0.48;61.12;97558.65;1774419;78;20986;-72
2023/03/07 07:16:20;;;;;;;14.27;11.33;;;;;;;-0.54;61.10;97552.47;1785833;78;21041;-73
2023/03/07 07:18:50;;;;;;;16.15;8.75;;;;;;;-0.56;61.10;97556.81;1783450;78;21254;-73
2023/03/07 07:21:17;;;;;;;16.73;10.78;;;;;;;-0.58;61.02;97549.65;1783002;78;21065;-73
2023/03/07 07:23:44;;;;;;;19.40;8.20;;;;;;;-0.47;61.17;97548.35;1782073;79;20994;-60
2023/03/07 07:26:11;;;;;;;13.95;9.40;;;;;;;-0.34;61.03;97542.30;1782436;78;21369;-61
2023/03/07 07:28:40;;;;;;;13.62;8.48;;;;;;;-0.12;61.01;97541.47;1783434;79;20914;-67
2023/03/07 07:31:07;;;;;;;13.22;7.12;;;;;;;0.19;60.95;97540.64;1789426;79;21010;-72
2023/03/07 07:33:34;;;;;;;13.72;7.72;;;;;;;0.44;60.79;97535.79;1799980;78;22221;-74
2023/03/07 07:36:00;;;;;;;13.70;7.15;;;;;;;0.57;60.44;97527.97;1796989;78;21092;-73
2023/03/07 07:38:27;;;;;;;9.00;6.20;;;;;;;0.66;60.48;97517.75;1789092;78;20950;-72
2023/03/07 07:40:55;;;;;;;10.88;7.30;;;;;;;0.76;59.90;97510.50;1785259;79;21030;-70
2023/03/07 07:43:21;;;;;;;;;;;;;;;0.84;59.99;97509.27;1798041;78;21001;-72
2023/03/07 07:45:47;;;;;;;10.53;6.25;;;;;;;0.95;59.59;97505.38;1789325;78;20112;-68
2023/03/07 07:48:14;;;;;;;9.48;5.78;;;;;;;1.07;59.87;97495.41;1791625;78;20993;-68
2023/03/07 07:50:41;;;;;;;9.65;6.40;;;;;;;1.27;59.47;97499.64;1791277;78;21001;-63
2023/03/07 07:53:08;;;;;;;9.95;6.72;;;;;;;1.21;58.70;97488.82;1754753;80;21022;-69
2023/03/07 07:55:34;;;;;;;14.65;5.95;;;;;;;1.13;58.53;97485.76;1743230;80;21599;-67
2023/03/07 07:58:02;;;;;;;11.25;6.75;;;;;;;0.96;58.39;97464.21;1746089;80;21646;-65
2023/03/07 08:00:30;;;;;;;13.03;7.30;;;;;;;0.82;57.93;97469.13;1748985;80;21021;-67
2023/03/07 08:02:59;;;;;;;9.90;6.62;;;;;;;0.70;57.98;97460.66;1741052;80;21050;-66
2023/03/07 08:05:26;;;;;;;11.55;6.58;;;;;;;0.60;57.79;97467.48;1732470;80;21047;-68
2023/03/07 08:07:52;;;;;;;15.15;7.17;;;;;;;0.54;57.42;97452.34;1747250;80;20937;-68
2023/03/07 08:10:20;;;;;;;13.47;8.03;;;;;;;0.51;57.13;97449.91;1746787;80;21139;-68
2023/03/07 08:12:50;;;;;;;;;;;;;;;0.60;57.05;97446.94;1745106;80;21007;-66
2023/03/07 08:15:20;;;;;;;14.50;7.85;;;;;;;0.64;56.71;97453.63;1743126;80;20167;-63
2023/03/07 08:17:49;;;;;;;13.18;9.38;;;;;;;0.65;56.85;97445.02;1753332;80;21699;-64
2023/03/07 08:20:16;;;;;;;12.82;8.68;;;;;;;0.94;56.48;97455.73;1744290;80;20977;-68
2023/03/07 08:22:43;;;;;;;13.05;7.83;;;;;;;1.60;56.75;97439.85;1728713;80;21769;-67
2023/03/07 08:25:15;;;;;;;14.47;8.33;;;;;;;1.72;56.07;97438.42;1734454;81;21125;-68
2023/03/07 08:27:42;;;;;;;12.60;8.63;;;;;;;1.51;55.86;97435.98;1731149;81;20984;-67
2023/03/07 08:30:11;;;;;;;13.10;8.35;;;;;;;1.40;55.87;97430.51;1722105;81;21012;-69
2023/03/07 08:32:37;;;;;;;15.48;8.90;;;;;;;1.24;55.50;97444.98;1705124;82;21058;-69
2023/03/07 08:35:06;;;;;;;14.18;9.13;;;;;;;0.98;55.27;97413.59;1711403;82;21553;-64
2023/03/07 08:37:34;;;;;;;41.75;12.70;;;;;;;0.87;55.15;97408.11;1709204;82;21024;-69
2023/03/07 08:40:01;;;;;;;19.37;10.75;;;;;;;0.85;55.44;97404.77;1698620;82;21527;-68
2023/03/07 08:42:27;;;;;;;17.90;10.98;;;;;;;0.84;55.21;97413.36;1708698;82;21407;-69
2023/03/07 08:44:54;;;;;;;19.15;11.63;;;;;;;0.72;55.26;97379.24;1712375;82;20988;-67
2023/03/07 08:47:23;;;;;;;18.60;12.18;;;;;;;0.71;55.39;97393.00;1715520;82;20958;-69
2023/03/07 08:49:49;;;;;;;26.40;11.73;;;;;;;0.68;55.39;97381.58;1711316;82;22081;-66
2023/03/07 08:52:16;;;;;;;18.57;11.63;;;;;;;0.64;55.56;97379.16;1719867;81;21030;-69
2023/03/07 08:54:46;;;;;;;;;;;;;;;0.53;55.44;97349.69;1775204;79;20999;-69
2023/03/07 08:57:12;;;;;;;21.55;14.78;;;;;;;0.40;55.75;97343.00;1763223;78;20203;-68
2023/03/07 08:59:39;;;;;;;30.17;18.32;;;;;;;0.37;55.83;97354.70;1776045;79;21014;-68
2023/03/07 09:02:08;;;;;;;28.57;14.37;;;;;;;0.35;56.19;97357.77;1769568;77;21103;-67
2023/03/07 09:04:37;;;;;;;19.25;13.60;;;;;;;0.26;56.19;97347.91;1730718;80;21112;-68
2023/03/07 09:07:09;;;;;;;26.77;18.23;;;;;;;0.18;56.49;97337.52;1778138;78;21101;-69
2023/03/07 09:09:35;;;;;;;35.70;19.65;;;;;;;0.08;56.84;97338.81;1772898;79;21019;-69
2023/03/07 09:12:06;;;;;;;24.60;18.12;;;;;;;0.01;56.95;97339.16;1775265;77;21017;-69
2023/03/07 09:14:35;;;;;;;22.50;15.95;;;;;;;-0.08;57.44;97330.95;1774839;79;21551;-65
2023/03/07 09:17:03;;;;;;;22.67;17.03;;;;;;;-0.11;57.87;97326.38;1774414;79;21036;-67
2023/03/07 09:19:30;;;;;;;31.23;21.80;;;;;;;-0.17;58.07;97309.98;1771837;79;21013;-69
2023/03/07 09:21:57;;;;;;;27.22;18.17;;;;;;;-0.29;58.18;97308.77;1745143;81;21065;-68
2023/03/07 09:24:23;;;;;;;25.00;17.20;;;;;;;-0.35;58.44;97299.61;1712528;82;21052;-68
2023/03/07 09:26:52;;;;;;;26.20;18.60;;;;;;;-0.39;58.78;97300.65;1778655;79;21571;-69
2023/03/07 09:29:18;;;;;;;25.20;16.82;;;;;;;-0.36;58.99;97297.95;1777637;79;21015;-69
2023/03/07 09:31:45;;;;;;;26.80;19.90;;;;;;;-0.42;59.48;97289.24;1788142;78;20982;-65
2023/03/07 09:34:12;;;;;;;27.60;18.02;;;;;;;-0.49;59.72;97282.69;1766319;79;22275;-63
2023/03/07 09:36:38;;;;;;;30.52;17.95;;;;;;;-0.53;60.10;97264.51;1784927;78;21501;-62
2023/03/07 09:39:07;;;;;;;39.35;22.42;;;;;;;-0.64;60.67;97258.55;1776177;78;21481;-67
2023/03/07 09:41:54;;;;;;;27.22;18.17;;;;;;;-0.73;61.03;97243.53;1776402;79;21053;-60
2023/03/07 09:44:41;;;;;;;26.55;19.17;;;;;;;-0.81;62.21;97252.83;1786369;78;21014;-58
2023/03/07 09:47:35;;;;;;;;;;;;;;;-0.96;62.69;97243.20;1774190;78;21548;-58
2023/03/07 09:50:12;;;;;;;30.55;20.60;;;;;;;-0.96;63.19;97248.31;1781287;79;21719;-59
2023/03/07 09:52:41;;;;;;;33.50;20.85;;;;;;;-1.04;64.02;97227.30;1780053;79;21022;-59
2023/03/07 09:55:17;;;;;;;30.90;20.85;;;;;;;-0.98;63.93;97228.33;1783356;78;21072;-59
2023/03/07 09:57:54;;;;;;;38.33;25.48;;;;;;;-1.01;64.62;97225.89;1796543;79;20989;-58
2023/03/07 10:00:34;;;;;;;43.63;27.43;;;;;;;-1.15;64.78;97226.03;1790047;78;21002;-71
2023/03/07 10:03:47;;;;;;;60.95;36.65;;;;;;;-1.07;65.02;97210.78;1786073;79;21077;-70
2023/03/07 10:06:34;;;;;;;43.15;28.60;;;;;;;-1.06;64.99;97216.31;1785637;78;21053;-66
2023/03/07 10:09:13;;;;;;;40.08;25.85;;;;;;;-1.01;65.41;97210.11;1789297;79;21115;-69
2023/03/07 10:12:02;;;;;;;36.08;24.43;;;;;;;-0.98;65.81;97214.24;1789072;78;21001;-65
2023/03/07 10:15:07;;;;;;;33.55;23.27;;;;;;;-0.94;66.28;97208.94;1791478;78;21057;-68
2023/03/07 10:18:13;;;;;;;36.77;24.37;;;;;;;-0.86;66.47;97200.95;1780880;78;21064;-65
2023/03/07 10:20:53;;;;;;;30.95;22.13;;;;;;;-0.75;66.75;97183.84;1720084;82;21023;-65
2023/03/07 10:23:56;;;;;;;33.88;23.85;;;;;;;-0.59;67.56;97196.37;1752232;80;20999;-66
2023/03/07 10:26:50;;;;;;;33.58;22.40;;;;;;;-0.64;67.52;97188.06;1750999;80;21077;-70
2023/03/07 10:29:21;;;;;;;29.72;21.90;;;;;;;-0.57;67.52;97191.19;1751119;80;21022;-72
2023/03/07 10:32:11;;;;;;;29.57;19.73;;;;;;;-0.48;67.95;97175.41;1708802;82;20994;-67
2023/03/07 10:34:40;;;;;;;33.30;20.82;;;;;;;-0.35;67.99;97155.20;1690493;82;21042;-72
2023/03/07 10:37:19;;;;;;;35.03;21.40;;;;;;;-0.36;68.19;97162.06;1738456;81;21055;-68
2023/03/07 10:39:55;;;;;;;28.98;20.60;;;;;;;-0.23;68.60;97155.92;1750004;80;21053;-65
2023/03/07 10:42:26;;;;;;;29.85;20.82;;;;;;;-0.09;68.70;97143.76;1745015;80;20951;-66
2023/03/07 10:44:59;;;;;;;28.23;21.02;;;;;;;-0.22;68.99;97138.38;1737875;80;21433;-66
2023/03/07 10:47:27;;;;;;;28.02;21.35;;;;;;;-0.24;68.82;97151.25;1728608;81;21111;-66
2023/03/07 10:49:59;;;;;;;31.70;21.87;;;;;;;-0.15;69.17;97136.35;1703306;81;21029;-66
2023/03/07 10:52:55;;;;;;;27.58;20.20;;;;;;;-0.02;68.94;97129.77;1748959;80;21076;-62
2023/03/07 10:55:45;;;;;;;33.75;23.07;;;;;;;-0.06;69.04;97176.96;1712562;82;21537;-64
2023/03/07 10:58:22;;;;;;;30.92;21.20;;;;;;;-0.01;69.75;97121.16;1737473;80;21466;-68
2023/03/07 11:01:08;;;;;;;29.10;19.80;;;;;;;0.35;70.02;97115.20;1745371;79;21096;-69
2023/03/07 11:04:04;;;;;;;27.33;19.93;;;;;;;0.51;69.97;97102.47;1718396;81;20971;-66
2023/03/07 11:06:48;;;;;;;27.17;20.50;;;;;;;0.76;70.21;97107.23;1746547;80;21540;-67
2023/03/07 11:09:19;;;;;;;24.37;19.62;;;;;;;0.69;70.13;97095.59;1742014;80;21025;-64
2023/03/07 11:12:00;;;;;;;24.87;19.10;;;;;;;0.71;70.44;97091.22;1747719;80;21060;-60
2023/03/07 11:14:31;;;;;;;22.37;17.67;;;;;;;0.62;70.47;97098.47;1746959;80;21525;-63
2023/03/07 11:17:00;;;;;;;23.57;18.27;;;;;;;0.55;70.50;97096.27;1748652;80;21021;-66
2023/03/07 11:19:35;;;;;;;26.00;18.75;;;;;;;0.43;70.64;97095.95;1747756;80;20994;-66
2023/03/07 11:22:24;;;;;;;28.30;20.08;;;;;;;0.32;70.77;97083.27;1750484;80;21007;-63
2023/03/07 11:25:02;;;;;;;26.15;18.57;;;;;;;0.25;70.88;97084.00;1720851;82;21444;-62
2023/03/07 11:27:40;;;;;;;25.52;19.50;;;;;;;0.21;70.91;97070.48;1780522;79;21098;-64
2023/03/07 11:30:27;;;;;;;28.02;19.70;;;;;;;0.16;71.07;97067.30;1785656;78;21061;-65
2023/03/07 11:33:18;;;;;;;26.33;20.10;;;;;;;0.12;71.20;97073.50;1779332;78;21017;-63
2023/03/07 11:35:59;;;;;;;28.00;20.82;;;;;;;0.15;71.24;97063.09;1781060;78;21442;-65
2023/03/07 11:38:40;;;;;;;27.07;20.15;;;;;;;0.06;71.40;97050.71;1773311;79;20962;-65
2023/03/07 11:41:17;;;;;;;27.93;20.15;;;;;;;0.06;71.60;97048.14;1778737;78;20941;-67